createdAt,value
2023-03-29T00:02:53.285Z,43.37
2023-03-29T00:08:02.726Z,43.24
2023-03-29T00:13:05.343Z,42.85
2023-03-29T00:18:07.579Z,43.11
2023-03-29T00:23:09.653Z,43.12
2023-03-29T00:28:14.184Z,43.02
2023-03-29T00:33:16.226Z,43.28
2023-03-29T00:38:18.382Z,42.81
2023-03-29T00:43:21.117Z,42.99
2023-03-29T00:48:28.239Z,43.23
2023-03-29T00:53:34.440Z,44.22
2023-03-29T00:58:55.474Z,46.39
2023-03-29T01:04:05.305Z,47.39
2023-03-29T01:09:10.564Z,48.03
2023-03-29T01:14:23.123Z,48.76
2023-03-29T01:19:30.522Z,48.77
2023-03-29T01:24:41.060Z,48.95
2023-03-29T01:29:51.791Z,48.86
2023-03-29T01:35:04.230Z,49.09
2023-03-29T01:40:06.804Z,49.16
2023-03-29T01:45:27.908Z,49.55
2023-03-29T01:50:41.470Z,49.49
2023-03-29T01:55:47.742Z,49.00
2023-03-29T02:00:54.357Z,48.92
2023-03-29T02:05:57.829Z,49.35
2023-03-29T02:11:03.346Z,49.88
2023-03-29T02:16:13.378Z,49.38
2023-03-29T02:21:28.591Z,49.18
2023-03-29T02:26:31.098Z,48.61
2023-03-29T02:31:41.465Z,48.76
2023-03-29T02:36:48.122Z,48.73
2023-03-29T02:41:51.552Z,48.99
2023-03-29T02:46:57.562Z,49.15
2023-03-29T02:52:06.918Z,49.83
2023-03-29T02:57:10.527Z,50.16
2023-03-29T03:02:14.001Z,50.50
2023-03-29T03:07:18.454Z,50.44
2023-03-29T03:12:20.935Z,50.51
2023-03-29T03:17:25.870Z,50.35
2023-03-29T03:22:28.170Z,50.43
2023-03-29T03:27:30.521Z,50.63
2023-03-29T03:32:35.386Z,51.10
2023-03-29T03:38:20.344Z,51.26
2023-03-29T03:43:34.164Z,51.13
2023-03-29T03:48:37.377Z,51.23
2023-03-29T03:53:56.593Z,51.30
2023-03-29T03:59:11.800Z,51.03
2023-03-29T04:04:36.715Z,51.62
2023-03-29T04:09:49.024Z,51.21
2023-03-29T04:15:07.922Z,51.53
2023-03-29T04:20:12.958Z,51.59
2023-03-29T04:25:16.799Z,51.88
2023-03-29T04:30:26.141Z,51.83
2023-03-29T04:35:38.023Z,52.01
2023-03-29T04:40:44.244Z,52.25
2023-03-29T04:45:56.241Z,51.92
2023-03-29T04:51:25.105Z,52.31
2023-03-29T04:56:29.410Z,52.28
2023-03-29T05:02:05.221Z,52.30
2023-03-29T05:07:08.028Z,52.48
2023-03-29T05:12:10.408Z,52.46
2023-03-29T05:17:28.529Z,52.81
2023-03-29T05:22:37.248Z,52.83
2023-03-29T05:27:42.827Z,52.91
2023-03-29T05:32:47.148Z,52.85
2023-03-29T05:37:54.016Z,53.23
2023-03-29T05:42:58.395Z,53.04
2023-03-29T05:48:01.621Z,53.24
2023-03-29T05:53:04.427Z,53.35
2023-03-29T05:58:13.069Z,53.34
2023-03-29T06:03:21.194Z,53.57
2023-03-29T06:08:26.595Z,54.07
2023-03-29T06:13:47.150Z,54.17
2023-03-29T06:18:49.530Z,54.41
2023-03-29T06:23:52.036Z,54.49
2023-03-29T06:28:54.696Z,54.71
2023-03-29T06:33:58.487Z,54.80
2023-03-29T06:39:11.817Z,54.38
2023-03-29T06:44:40.066Z,54.25
2023-03-29T06:49:53.063Z,54.29
2023-03-29T06:55:13.183Z,54.21
2023-03-29T07:00:19.215Z,53.54
2023-03-29T07:05:52.295Z,53.78
2023-03-29T07:10:56.759Z,53.85
2023-03-29T07:16:18.513Z,53.37
2023-03-29T07:21:37.896Z,52.38
2023-03-29T07:26:52.141Z,53.01
2023-03-29T07:32:03.038Z,52.86
2023-03-29T07:37:11.545Z,53.71
2023-03-29T07:42:16.509Z,53.05
2023-03-29T07:47:19.040Z,53.43
2023-03-29T07:52:22.084Z,52.55
2023-03-29T07:57:26.861Z,52.54
2023-03-29T08:02:31.507Z,50.47
2023-03-29T08:07:37.494Z,50.48
2023-03-29T08:12:58.427Z,51.02
2023-03-29T08:18:26.769Z,50.41
2023-03-29T08:23:29.209Z,50.84
2023-03-29T08:28:46.430Z,50.52
2023-03-29T08:33:50.326Z,49.48
2023-03-29T08:39:11.391Z,47.93
2023-03-29T08:44:43.277Z,46.35
2023-03-29T08:49:53.852Z,45.55
2023-03-29T08:55:03.588Z,44.05
2023-03-29T09:00:42.211Z,43.38
2023-03-29T09:05:50.222Z,42.20
2023-03-29T09:11:24.385Z,37.50
2023-03-29T09:16:41.299Z,37.18
2023-03-29T09:21:47.481Z,35.67
2023-03-29T09:27:05.458Z,32.45
2023-03-29T09:32:22.782Z,32.01
2023-03-29T09:37:38.366Z,30.38
2023-03-29T09:42:41.960Z,29.63
2023-03-29T09:48:03.559Z,29.95
2023-03-29T09:53:11.963Z,29.32
2023-03-29T09:58:22.760Z,28.89
2023-03-29T10:03:29.911Z,28.43
2023-03-29T10:08:48.217Z,28.31
2023-03-29T10:13:55.134Z,28.22
2023-03-29T10:18:57.385Z,28.56
2023-03-29T10:23:59.751Z,28.01
2023-03-29T10:29:04.188Z,26.43
2023-03-29T10:34:06.788Z,26.59
2023-03-29T10:39:11.042Z,26.87
2023-03-29T10:44:33.296Z,26.16
2023-03-29T10:49:45.315Z,26.80
2023-03-29T10:54:48.678Z,25.98
2023-03-29T11:00:08.835Z,25.72
2023-03-29T11:05:27.765Z,25.75
2023-03-29T11:10:48.969Z,25.40
2023-03-29T11:16:00.247Z,25.43
2023-03-29T11:21:21.263Z,25.08
2023-03-29T11:26:25.166Z,26.03
2023-03-29T11:31:56.170Z,24.85
2023-03-29T11:37:08.022Z,26.07
2023-03-29T11:42:18.919Z,25.69
2023-03-29T11:47:23.265Z,25.86
2023-03-29T11:52:33.931Z,25.78
2023-03-29T11:57:42.469Z,26.44
2023-03-29T12:02:58.793Z,27.48
2023-03-29T12:08:16.663Z,27.06
2023-03-29T12:13:36.011Z,27.69
2023-03-29T12:18:45.495Z,27.95
2023-03-29T12:23:48.483Z,27.59
2023-03-29T12:29:11.655Z,27.55
2023-03-29T12:34:16.509Z,25.48
2023-03-29T12:39:45.375Z,25.63
2023-03-29T12:45:15.394Z,25.64
2023-03-29T12:50:33.428Z,26.05
2023-03-29T12:55:50.665Z,24.37
2023-03-29T13:01:10.015Z,26.17
2023-03-29T13:06:13.677Z,24.69
2023-03-29T13:11:34.122Z,25.08
2023-03-29T13:16:36.487Z,24.41
2023-03-29T13:21:49.471Z,23.54
2023-03-29T13:27:15.590Z,24.07
2023-03-29T13:32:36.766Z,23.52
2023-03-29T13:37:42.409Z,23.93
2023-03-29T13:42:46.724Z,23.45
2023-03-29T13:48:04.328Z,22.91
2023-03-29T13:53:26.753Z,20.93
2023-03-29T13:58:41.932Z,21.59
2023-03-29T14:03:46.231Z,21.06
2023-03-29T14:08:49.563Z,21.22
2023-03-29T14:13:56.126Z,21.65
2023-03-29T14:19:01.525Z,21.61
2023-03-29T14:24:10.691Z,21.70
2023-03-29T14:29:15.536Z,22.15
2023-03-29T14:34:20.099Z,20.57
2023-03-29T14:39:24.470Z,21.99
2023-03-29T14:44:32.040Z,20.74
2023-03-29T14:49:35.023Z,20.77
2023-03-29T14:54:38.380Z,22.20
2023-03-29T14:59:43.124Z,21.62
2023-03-29T15:04:45.256Z,21.88
2023-03-29T15:09:47.448Z,23.07
2023-03-29T15:14:52.060Z,22.94
2023-03-29T15:19:58.500Z,24.13
2023-03-29T15:25:04.594Z,23.60
2023-03-29T15:30:16.901Z,23.53
2023-03-29T15:35:24.708Z,21.65
2023-03-29T15:40:37.284Z,22.87
2023-03-29T15:45:41.476Z,24.99
2023-03-29T15:50:44.808Z,23.30
2023-03-29T15:55:59.984Z,23.62
2023-03-29T16:01:14.926Z,22.27
2023-03-29T16:06:22.401Z,23.35
2023-03-29T16:11:24.739Z,23.75
2023-03-29T16:16:27.337Z,22.68
2023-03-29T16:21:29.630Z,23.65
2023-03-29T16:26:32.797Z,23.58
2023-03-29T16:31:40.486Z,24.38
2023-03-29T16:36:44.355Z,23.62
2023-03-29T16:41:49.162Z,24.39
2023-03-29T16:46:57.906Z,24.19
2023-03-29T16:52:00.159Z,24.53
2023-03-29T16:57:02.233Z,23.91
2023-03-29T17:02:04.260Z,24.67
2023-03-29T17:07:06.898Z,23.58
2023-03-29T17:12:09.159Z,23.93
2023-03-29T17:17:11.380Z,23.89
2023-03-29T17:22:13.387Z,24.26
2023-03-29T17:27:16.434Z,25.06
2023-03-29T17:32:18.559Z,23.13
2023-03-29T17:37:24.114Z,22.68
2023-03-29T17:42:26.525Z,22.21
2023-03-29T17:47:28.689Z,23.46
2023-03-29T17:52:31.075Z,23.65
2023-03-29T17:57:33.701Z,24.50
2023-03-29T18:02:47.401Z,24.46
2023-03-29T18:07:49.572Z,25.39
2023-03-29T18:12:52.059Z,25.80
2023-03-29T18:17:58.945Z,26.82
2023-03-29T18:23:10.277Z,27.75
2023-03-29T18:28:14.688Z,27.51
2023-03-29T18:33:26.260Z,28.40
2023-03-29T18:38:30.143Z,29.18
2023-03-29T18:43:43.779Z,29.22
2023-03-29T18:48:50.193Z,28.95
2023-03-29T18:54:11.768Z,30.49
2023-03-29T18:59:20.055Z,30.09
2023-03-29T19:04:26.819Z,30.56
2023-03-29T19:09:30.242Z,30.94
2023-03-29T19:14:41.521Z,31.19
2023-03-29T19:25:18.538Z,32.43
2023-03-29T19:37:34.677Z,33.35
2023-03-29T19:42:41.746Z,32.86
2023-03-29T19:47:47.757Z,32.57
2023-03-29T19:52:50.521Z,32.80
2023-03-29T19:57:52.800Z,33.56
2023-03-29T20:02:56.933Z,33.50
2023-03-29T20:07:59.022Z,33.57
2023-03-29T20:13:02.165Z,34.45
2023-03-29T20:18:05.459Z,34.61
2023-03-29T20:23:16.954Z,34.48
2023-03-29T20:28:19.909Z,34.43
2023-03-29T20:33:22.550Z,34.77
2023-03-29T20:38:24.890Z,34.79
2023-03-29T20:43:27.456Z,35.29
2023-03-29T20:48:38.464Z,35.20
2023-03-29T20:53:44.104Z,35.40
2023-03-29T20:58:47.848Z,35.53
2023-03-29T21:03:49.985Z,35.25
2023-03-29T21:08:52.747Z,35.83
2023-03-29T21:13:55.406Z,35.76
2023-03-29T21:18:57.534Z,35.76
2023-03-29T21:23:59.828Z,35.93
2023-03-29T21:29:19.409Z,35.34
2023-03-29T21:34:45.326Z,36.53
2023-03-29T21:39:47.409Z,36.40
2023-03-29T21:44:49.475Z,35.85
2023-03-29T21:49:51.943Z,35.83
2023-03-29T21:54:54.083Z,36.59
2023-03-29T21:59:56.880Z,36.09
2023-03-29T22:04:59.131Z,36.89
2023-03-29T22:10:05.178Z,36.81
2023-03-29T22:15:11.795Z,37.20
2023-03-29T22:20:15.096Z,36.72
2023-03-29T22:25:25.558Z,37.36
2023-03-29T22:30:28.807Z,38.61
2023-03-29T22:35:33.615Z,38.60
2023-03-29T22:40:40.740Z,38.87
2023-03-29T22:45:44.717Z,38.91
2023-03-29T22:50:47.555Z,39.48
2023-03-29T22:55:49.753Z,40.25
2023-03-29T23:00:52.701Z,40.01
2023-03-29T23:05:57.124Z,40.20
2023-03-29T23:11:00.530Z,40.47
2023-03-29T23:16:06.048Z,40.73
2023-03-29T23:21:12.820Z,40.56
2023-03-29T23:26:19.702Z,41.20
2023-03-29T23:31:25.091Z,41.77
2023-03-29T23:36:32.855Z,42.98
2023-03-29T23:41:37.695Z,42.08
2023-03-29T23:46:43.299Z,42.58
2023-03-29T23:51:49.371Z,42.61
2023-03-29T23:56:54.311Z,43.47
